sensor_id;sensor_type;location;lat;lon;timestamp;P1;durP1;ratioP1;P2;durP2;ratioP2
13048;SDS011;6591;51.446;5.404;2023-09-30T00:01:52;7.67;;;5.20;;
13048;SDS011;6591;51.446;5.404;2023-09-30T00:04:22;7.00;;;4.73;;
13048;SDS011;6591;51.446;5.404;2023-09-30T00:06:51;7.43;;;4.40;;
13048;SDS011;6591;51.446;5.404;2023-09-30T00:09:18;7.77;;;5.30;;
13048;SDS011;6591;51.446;5.404;2023-09-30T00:11:46;6.47;;;4.83;;
13048;SDS011;6591;51.446;5.404;2023-09-30T00:14:13;7.97;;;5.03;;
13048;SDS011;6591;51.446;5.404;2023-09-30T00:16:41;7.43;;;5.00;;
13048;SDS011;6591;51.446;5.404;2023-09-30T00:19:09;7.57;;;5.00;;
13048;SDS011;6591;51.446;5.404;2023-09-30T00:21:36;7.37;;;5.20;;
13048;SDS011;6591;51.446;5.404;2023-09-30T00:24:04;7.80;;;5.40;;
13048;SDS011;6591;51.446;5.404;2023-09-30T00:26:32;8.70;;;5.97;;
13048;SDS011;6591;51.446;5.404;2023-09-30T00:29:00;6.23;;;5.13;;
13048;SDS011;6591;51.446;5.404;2023-09-30T00:31:31;6.47;;;4.97;;
13048;SDS011;6591;51.446;5.404;2023-09-30T00:33:59;7.03;;;5.30;;
13048;SDS011;6591;51.446;5.404;2023-09-30T00:36:26;7.80;;;5.90;;
13048;SDS011;6591;51.446;5.404;2023-09-30T00:38:54;6.87;;;5.23;;
13048;SDS011;6591;51.446;5.404;2023-09-30T00:41:22;7.03;;;5.43;;
13048;SDS011;6591;51.446;5.404;2023-09-30T00:43:49;9.37;;;5.83;;
13048;SDS011;6591;51.446;5.404;2023-09-30T00:48:56;7.13;;;5.13;;
13048;SDS011;6591;51.446;5.404;2023-09-30T00:51:27;6.33;;;5.53;;
13048;SDS011;6591;51.446;5.404;2023-09-30T00:53:56;8.33;;;5.83;;
13048;SDS011;6591;51.446;5.404;2023-09-30T00:56:27;7.93;;;5.93;;
13048;SDS011;6591;51.446;5.404;2023-09-30T00:58:57;8.97;;;6.53;;
13048;SDS011;6591;51.446;5.404;2023-09-30T01:01:30;7.67;;;5.40;;
13048;SDS011;6591;51.446;5.404;2023-09-30T01:03:58;6.80;;;5.27;;
13048;SDS011;6591;51.446;5.404;2023-09-30T01:06:31;8.77;;;5.87;;
13048;SDS011;6591;51.446;5.404;2023-09-30T01:08:59;9.23;;;6.30;;
13048;SDS011;6591;51.446;5.404;2023-09-30T01:11:27;8.30;;;6.20;;
13048;SDS011;6591;51.446;5.404;2023-09-30T01:13:55;8.53;;;6.03;;
13048;SDS011;6591;51.446;5.404;2023-09-30T01:16:24;10.33;;;6.27;;
13048;SDS011;6591;51.446;5.404;2023-09-30T01:18:53;7.00;;;5.53;;
13048;SDS011;6591;51.446;5.404;2023-09-30T01:21:23;8.40;;;5.63;;
13048;SDS011;6591;51.446;5.404;2023-09-30T01:23:55;9.83;;;6.17;;
13048;SDS011;6591;51.446;5.404;2023-09-30T01:26:24;6.70;;;5.73;;
13048;SDS011;6591;51.446;5.404;2023-09-30T01:28:52;9.00;;;6.17;;
13048;SDS011;6591;51.446;5.404;2023-09-30T01:31:23;8.27;;;5.97;;
13048;SDS011;6591;51.446;5.404;2023-09-30T01:33:52;8.07;;;5.43;;
13048;SDS011;6591;51.446;5.404;2023-09-30T01:36:23;9.47;;;6.07;;
13048;SDS011;6591;51.446;5.404;2023-09-30T01:38:51;7.93;;;6.43;;
13048;SDS011;6591;51.446;5.404;2023-09-30T01:41:21;8.33;;;6.13;;
13048;SDS011;6591;51.446;5.404;2023-09-30T01:43:50;7.17;;;5.87;;
13048;SDS011;6591;51.446;5.404;2023-09-30T01:46:20;9.87;;;6.70;;
13048;SDS011;6591;51.446;5.404;2023-09-30T01:48:49;7.57;;;6.17;;
13048;SDS011;6591;51.446;5.404;2023-09-30T01:51:18;7.03;;;5.50;;
13048;SDS011;6591;51.446;5.404;2023-09-30T01:53:45;8.70;;;5.93;;
13048;SDS011;6591;51.446;5.404;2023-09-30T01:56:16;6.97;;;5.33;;
13048;SDS011;6591;51.446;5.404;2023-09-30T01:58:43;6.57;;;5.77;;
13048;SDS011;6591;51.446;5.404;2023-09-30T02:01:11;7.67;;;5.37;;
13048;SDS011;6591;51.446;5.404;2023-09-30T02:03:38;8.53;;;6.10;;
13048;SDS011;6591;51.446;5.404;2023-09-30T02:06:06;9.93;;;6.43;;
13048;SDS011;6591;51.446;5.404;2023-09-30T02:08:35;7.50;;;5.97;;
13048;SDS011;6591;51.446;5.404;2023-09-30T02:11:03;8.53;;;5.70;;
13048;SDS011;6591;51.446;5.404;2023-09-30T02:13:34;8.87;;;6.50;;
13048;SDS011;6591;51.446;5.404;2023-09-30T02:16:02;8.00;;;6.13;;
13048;SDS011;6591;51.446;5.404;2023-09-30T02:18:30;7.60;;;6.50;;
13048;SDS011;6591;51.446;5.404;2023-09-30T02:21:01;7.37;;;6.33;;
13048;SDS011;6591;51.446;5.404;2023-09-30T02:23:28;6.40;;;5.37;;
13048;SDS011;6591;51.446;5.404;2023-09-30T02:25:58;8.03;;;6.47;;
13048;SDS011;6591;51.446;5.404;2023-09-30T02:28:27;8.87;;;5.90;;
13048;SDS011;6591;51.446;5.404;2023-09-30T02:30:56;8.50;;;6.83;;
13048;SDS011;6591;51.446;5.404;2023-09-30T02:33:23;9.43;;;6.60;;
13048;SDS011;6591;51.446;5.404;2023-09-30T02:35:53;7.47;;;6.10;;
13048;SDS011;6591;51.446;5.404;2023-09-30T02:38:22;8.03;;;6.00;;
13048;SDS011;6591;51.446;5.404;2023-09-30T02:40:51;8.53;;;6.10;;
13048;SDS011;6591;51.446;5.404;2023-09-30T02:43:21;8.33;;;6.63;;
13048;SDS011;6591;51.446;5.404;2023-09-30T02:45:49;7.97;;;6.20;;
13048;SDS011;6591;51.446;5.404;2023-09-30T02:48:20;7.40;;;6.27;;
13048;SDS011;6591;51.446;5.404;2023-09-30T02:50:49;8.37;;;6.00;;
13048;SDS011;6591;51.446;5.404;2023-09-30T02:53:17;8.97;;;6.67;;
13048;SDS011;6591;51.446;5.404;2023-09-30T02:55:44;10.30;;;6.57;;
13048;SDS011;6591;51.446;5.404;2023-09-30T02:58:13;9.40;;;7.30;;
13048;SDS011;6591;51.446;5.404;2023-09-30T03:00:40;8.73;;;6.70;;
13048;SDS011;6591;51.446;5.404;2023-09-30T03:03:08;10.93;;;7.50;;
13048;SDS011;6591;51.446;5.404;2023-09-30T03:05:36;9.97;;;6.80;;
13048;SDS011;6591;51.446;5.404;2023-09-30T03:08:04;11.10;;;6.97;;
13048;SDS011;6591;51.446;5.404;2023-09-30T03:10:32;9.20;;;6.67;;
13048;SDS011;6591;51.446;5.404;2023-09-30T03:12:59;10.63;;;7.00;;
13048;SDS011;6591;51.446;5.404;2023-09-30T03:15:30;11.90;;;7.90;;
13048;SDS011;6591;51.446;5.404;2023-09-30T03:17:59;12.40;;;8.03;;
13048;SDS011;6591;51.446;5.404;2023-09-30T03:20:26;10.67;;;7.57;;
13048;SDS011;6591;51.446;5.404;2023-09-30T03:22:56;12.00;;;8.00;;
13048;SDS011;6591;51.446;5.404;2023-09-30T03:25:24;9.73;;;7.10;;
13048;SDS011;6591;51.446;5.404;2023-09-30T03:27:53;13.57;;;8.10;;
13048;SDS011;6591;51.446;5.404;2023-09-30T03:30:24;9.67;;;7.90;;
13048;SDS011;6591;51.446;5.404;2023-09-30T03:32:52;11.10;;;8.10;;
13048;SDS011;6591;51.446;5.404;2023-09-30T03:35:23;10.97;;;7.67;;
13048;SDS011;6591;51.446;5.404;2023-09-30T03:37:51;10.37;;;7.50;;
13048;SDS011;6591;51.446;5.404;2023-09-30T03:40:20;14.77;;;8.20;;
13048;SDS011;6591;51.446;5.404;2023-09-30T03:42:54;8.37;;;7.20;;
13048;SDS011;6591;51.446;5.404;2023-09-30T03:45:22;10.33;;;7.90;;
13048;SDS011;6591;51.446;5.404;2023-09-30T03:47:50;10.40;;;7.97;;
13048;SDS011;6591;51.446;5.404;2023-09-30T03:50:19;11.33;;;8.60;;
13048;SDS011;6591;51.446;5.404;2023-09-30T03:53:00;12.47;;;8.03;;
13048;SDS011;6591;51.446;5.404;2023-09-30T03:55:32;9.17;;;7.60;;
13048;SDS011;6591;51.446;5.404;2023-09-30T03:58:00;10.03;;;8.00;;
13048;SDS011;6591;51.446;5.404;2023-09-30T04:00:30;11.47;;;8.30;;
13048;SDS011;6591;51.446;5.404;2023-09-30T04:02:58;13.80;;;7.70;;
13048;SDS011;6591;51.446;5.404;2023-09-30T04:05:26;10.93;;;8.10;;
13048;SDS011;6591;51.446;5.404;2023-09-30T04:07:59;10.60;;;7.60;;
13048;SDS011;6591;51.446;5.404;2023-09-30T04:10:27;11.80;;;8.60;;
13048;SDS011;6591;51.446;5.404;2023-09-30T04:12:59;11.33;;;8.43;;
13048;SDS011;6591;51.446;5.404;2023-09-30T04:15:26;11.13;;;8.57;;
13048;SDS011;6591;51.446;5.404;2023-09-30T04:17:55;10.43;;;8.37;;
13048;SDS011;6591;51.446;5.404;2023-09-30T04:20:23;12.97;;;8.60;;
13048;SDS011;6591;51.446;5.404;2023-09-30T04:22:55;11.17;;;7.73;;
13048;SDS011;6591;51.446;5.404;2023-09-30T04:25:24;10.40;;;8.33;;
13048;SDS011;6591;51.446;5.404;2023-09-30T04:27:55;10.80;;;7.63;;
13048;SDS011;6591;51.446;5.404;2023-09-30T04:30:22;11.47;;;7.87;;
13048;SDS011;6591;51.446;5.404;2023-09-30T04:32:49;12.53;;;7.90;;
13048;SDS011;6591;51.446;5.404;2023-09-30T04:35:16;11.60;;;8.23;;
13048;SDS011;6591;51.446;5.404;2023-09-30T04:37:44;11.73;;;8.50;;
13048;SDS011;6591;51.446;5.404;2023-09-30T04:40:11;10.90;;;7.97;;
13048;SDS011;6591;51.446;5.404;2023-09-30T04:42:42;10.90;;;7.77;;
13048;SDS011;6591;51.446;5.404;2023-09-30T04:45:13;12.63;;;8.67;;
13048;SDS011;6591;51.446;5.404;2023-09-30T04:47:47;10.77;;;7.83;;
13048;SDS011;6591;51.446;5.404;2023-09-30T04:50:17;12.67;;;8.77;;
13048;SDS011;6591;51.446;5.404;2023-09-30T04:52:48;11.17;;;7.97;;
13048;SDS011;6591;51.446;5.404;2023-09-30T04:55:21;11.50;;;8.47;;
13048;SDS011;6591;51.446;5.404;2023-09-30T04:57:49;10.77;;;8.17;;
13048;SDS011;6591;51.446;5.404;2023-09-30T05:00:19;11.53;;;8.40;;
13048;SDS011;6591;51.446;5.404;2023-09-30T05:02:52;10.77;;;8.30;;
13048;SDS011;6591;51.446;5.404;2023-09-30T05:05:22;10.90;;;8.27;;
13048;SDS011;6591;51.446;5.404;2023-09-30T05:07:49;9.97;;;7.93;;
13048;SDS011;6591;51.446;5.404;2023-09-30T05:10:17;10.30;;;8.07;;
13048;SDS011;6591;51.446;5.404;2023-09-30T05:12:44;11.73;;;8.90;;
13048;SDS011;6591;51.446;5.404;2023-09-30T05:15:14;9.73;;;7.80;;
13048;SDS011;6591;51.446;5.404;2023-09-30T05:17:43;13.70;;;8.37;;
13048;SDS011;6591;51.446;5.404;2023-09-30T05:20:12;11.17;;;8.17;;
13048;SDS011;6591;51.446;5.404;2023-09-30T05:22:40;10.63;;;8.20;;
13048;SDS011;6591;51.446;5.404;2023-09-30T05:25:09;10.70;;;7.70;;
13048;SDS011;6591;51.446;5.404;2023-09-30T05:27:37;10.27;;;8.07;;
13048;SDS011;6591;51.446;5.404;2023-09-30T05:30:05;12.80;;;8.90;;
13048;SDS011;6591;51.446;5.404;2023-09-30T05:32:33;10.37;;;7.77;;
13048;SDS011;6591;51.446;5.404;2023-09-30T05:35:05;9.13;;;7.67;;
13048;SDS011;6591;51.446;5.404;2023-09-30T05:37:40;9.90;;;7.53;;
13048;SDS011;6591;51.446;5.404;2023-09-30T05:40:09;10.63;;;7.93;;
13048;SDS011;6591;51.446;5.404;2023-09-30T05:42:49;11.17;;;7.87;;
13048;SDS011;6591;51.446;5.404;2023-09-30T05:45:18;12.83;;;9.00;;
13048;SDS011;6591;51.446;5.404;2023-09-30T05:47:45;9.60;;;8.20;;
13048;SDS011;6591;51.446;5.404;2023-09-30T05:50:17;12.13;;;7.70;;
13048;SDS011;6591;51.446;5.404;2023-09-30T05:52:55;11.80;;;8.63;;
13048;SDS011;6591;51.446;5.404;2023-09-30T05:55:23;9.83;;;8.07;;
13048;SDS011;6591;51.446;5.404;2023-09-30T05:57:53;10.43;;;8.30;;
13048;SDS011;6591;51.446;5.404;2023-09-30T06:00:22;13.63;;;8.77;;
13048;SDS011;6591;51.446;5.404;2023-09-30T06:02:56;11.80;;;8.93;;
13048;SDS011;6591;51.446;5.404;2023-09-30T06:05:24;11.57;;;8.27;;
13048;SDS011;6591;51.446;5.404;2023-09-30T06:07:53;11.00;;;8.50;;
13048;SDS011;6591;51.446;5.404;2023-09-30T06:10:23;12.03;;;8.60;;
13048;SDS011;6591;51.446;5.404;2023-09-30T06:12:52;10.57;;;8.90;;
13048;SDS011;6591;51.446;5.404;2023-09-30T06:15:25;11.33;;;9.30;;
13048;SDS011;6591;51.446;5.404;2023-09-30T06:17:53;13.27;;;9.43;;
13048;SDS011;6591;51.446;5.404;2023-09-30T06:20:22;14.33;;;8.93;;
13048;SDS011;6591;51.446;5.404;2023-09-30T06:22:56;13.63;;;9.03;;
13048;SDS011;6591;51.446;5.404;2023-09-30T06:25:24;12.50;;;8.90;;
13048;SDS011;6591;51.446;5.404;2023-09-30T06:27:52;12.43;;;8.53;;
13048;SDS011;6591;51.446;5.404;2023-09-30T06:30:21;12.40;;;8.70;;
13048;SDS011;6591;51.446;5.404;2023-09-30T06:32:57;13.40;;;9.37;;
13048;SDS011;6591;51.446;5.404;2023-09-30T06:35:32;10.50;;;8.53;;
13048;SDS011;6591;51.446;5.404;2023-09-30T06:38:06;12.33;;;8.77;;
13048;SDS011;6591;51.446;5.404;2023-09-30T06:40:34;11.73;;;8.70;;
13048;SDS011;6591;51.446;5.404;2023-09-30T06:43:07;14.63;;;9.23;;
13048;SDS011;6591;51.446;5.404;2023-09-30T06:45:35;14.20;;;8.77;;
13048;SDS011;6591;51.446;5.404;2023-09-30T06:48:10;17.17;;;9.73;;
13048;SDS011;6591;51.446;5.404;2023-09-30T06:50:40;13.17;;;8.53;;
13048;SDS011;6591;51.446;5.404;2023-09-30T06:53:12;11.87;;;8.70;;
13048;SDS011;6591;51.446;5.404;2023-09-30T06:55:39;12.53;;;8.10;;
13048;SDS011;6591;51.446;5.404;2023-09-30T06:58:06;12.40;;;8.27;;
13048;SDS011;6591;51.446;5.404;2023-09-30T07:00:35;12.83;;;8.80;;
13048;SDS011;6591;51.446;5.404;2023-09-30T07:03:07;11.23;;;7.60;;
13048;SDS011;6591;51.446;5.404;2023-09-30T07:05:37;11.70;;;8.10;;
13048;SDS011;6591;51.446;5.404;2023-09-30T07:08:06;13.03;;;8.10;;
13048;SDS011;6591;51.446;5.404;2023-09-30T07:10:34;11.97;;;8.60;;
13048;SDS011;6591;51.446;5.404;2023-09-30T07:13:03;12.67;;;8.60;;
13048;SDS011;6591;51.446;5.404;2023-09-30T07:15:33;14.20;;;8.60;;
13048;SDS011;6591;51.446;5.404;2023-09-30T07:18:00;13.53;;;8.77;;
13048;SDS011;6591;51.446;5.404;2023-09-30T07:20:29;11.83;;;8.47;;
13048;SDS011;6591;51.446;5.404;2023-09-30T07:22:59;13.03;;;8.73;;
13048;SDS011;6591;51.446;5.404;2023-09-30T07:25:44;11.33;;;8.10;;
13048;SDS011;6591;51.446;5.404;2023-09-30T07:28:11;15.23;;;9.10;;
13048;SDS011;6591;51.446;5.404;2023-09-30T07:30:39;12.30;;;9.17;;
13048;SDS011;6591;51.446;5.404;2023-09-30T07:33:08;12.47;;;8.23;;
13048;SDS011;6591;51.446;5.404;2023-09-30T07:35:36;13.10;;;7.93;;
13048;SDS011;6591;51.446;5.404;2023-09-30T07:38:05;12.53;;;8.27;;
13048;SDS011;6591;51.446;5.404;2023-09-30T07:40:32;14.70;;;8.70;;
13048;SDS011;6591;51.446;5.404;2023-09-30T07:43:01;14.20;;;8.80;;
13048;SDS011;6591;51.446;5.404;2023-09-30T07:45:31;12.73;;;8.27;;
13048;SDS011;6591;51.446;5.404;2023-09-30T07:47:58;10.53;;;7.20;;
13048;SDS011;6591;51.446;5.404;2023-09-30T07:50:26;11.80;;;7.47;;
13048;SDS011;6591;51.446;5.404;2023-09-30T07:52:53;13.93;;;8.17;;
13048;SDS011;6591;51.446;5.404;2023-09-30T07:55:20;8.85;;;7.03;;
13048;SDS011;6591;51.446;5.404;2023-09-30T07:57:47;11.80;;;7.28;;
13048;SDS011;6591;51.446;5.404;2023-09-30T08:00:15;12.25;;;7.40;;
13048;SDS011;6591;51.446;5.404;2023-09-30T08:02:44;14.13;;;7.57;;
13048;SDS011;6591;51.446;5.404;2023-09-30T08:05:12;10.40;;;7.28;;
13048;SDS011;6591;51.446;5.404;2023-09-30T08:07:39;16.10;;;7.65;;
13048;SDS011;6591;51.446;5.404;2023-09-30T08:10:07;12.88;;;7.20;;
13048;SDS011;6591;51.446;5.404;2023-09-30T08:12:40;10.80;;;6.43;;
13048;SDS011;6591;51.446;5.404;2023-09-30T08:15:08;10.45;;;6.32;;
13048;SDS011;6591;51.446;5.404;2023-09-30T08:17:39;10.70;;;6.85;;
13048;SDS011;6591;51.446;5.404;2023-09-30T08:20:07;11.52;;;6.60;;
13048;SDS011;6591;51.446;5.404;2023-09-30T08:22:35;10.23;;;6.75;;
13048;SDS011;6591;51.446;5.404;2023-09-30T08:25:04;12.57;;;7.28;;
13048;SDS011;6591;51.446;5.404;2023-09-30T08:27:33;13.20;;;7.15;;
13048;SDS011;6591;51.446;5.404;2023-09-30T08:30:01;12.30;;;6.55;;
13048;SDS011;6591;51.446;5.404;2023-09-30T08:32:35;9.75;;;6.47;;
13048;SDS011;6591;51.446;5.404;2023-09-30T08:35:04;10.63;;;5.30;;
13048;SDS011;6591;51.446;5.404;2023-09-30T08:37:31;12.45;;;6.20;;
13048;SDS011;6591;51.446;5.404;2023-09-30T08:39:59;12.32;;;6.00;;
13048;SDS011;6591;51.446;5.404;2023-09-30T08:42:27;9.00;;;5.68;;
13048;SDS011;6591;51.446;5.404;2023-09-30T08:45:00;9.77;;;5.82;;
13048;SDS011;6591;51.446;5.404;2023-09-30T08:47:27;10.48;;;5.40;;
13048;SDS011;6591;51.446;5.404;2023-09-30T08:49:56;10.90;;;6.00;;
13048;SDS011;6591;51.446;5.404;2023-09-30T08:52:34;9.07;;;5.28;;
13048;SDS011;6591;51.446;5.404;2023-09-30T08:55:07;11.82;;;5.20;;
13048;SDS011;6591;51.446;5.404;2023-09-30T08:57:38;9.52;;;5.38;;
13048;SDS011;6591;51.446;5.404;2023-09-30T09:00:10;8.20;;;4.97;;
13048;SDS011;6591;51.446;5.404;2023-09-30T09:02:40;9.75;;;4.97;;
13048;SDS011;6591;51.446;5.404;2023-09-30T09:05:08;8.00;;;4.13;;
13048;SDS011;6591;51.446;5.404;2023-09-30T09:07:36;7.43;;;5.05;;
13048;SDS011;6591;51.446;5.404;2023-09-30T09:10:10;10.07;;;4.60;;
13048;SDS011;6591;51.446;5.404;2023-09-30T09:12:40;8.25;;;4.40;;
13048;SDS011;6591;51.446;5.404;2023-09-30T09:15:20;10.13;;;4.80;;
13048;SDS011;6591;51.446;5.404;2023-09-30T09:17:51;7.28;;;4.20;;
13048;SDS011;6591;51.446;5.404;2023-09-30T09:20:28;8.18;;;4.00;;
13048;SDS011;6591;51.446;5.404;2023-09-30T09:22:55;8.45;;;4.13;;
13048;SDS011;6591;51.446;5.404;2023-09-30T09:25:24;6.78;;;3.72;;
13048;SDS011;6591;51.446;5.404;2023-09-30T09:27:51;6.32;;;4.10;;
13048;SDS011;6591;51.446;5.404;2023-09-30T09:30:24;8.55;;;4.20;;
13048;SDS011;6591;51.446;5.404;2023-09-30T09:32:54;9.02;;;4.53;;
13048;SDS011;6591;51.446;5.404;2023-09-30T09:35:27;10.18;;;4.00;;
13048;SDS011;6591;51.446;5.404;2023-09-30T09:37:57;7.90;;;3.70;;
13048;SDS011;6591;51.446;5.404;2023-09-30T09:40:27;6.70;;;3.90;;
13048;SDS011;6591;51.446;5.404;2023-09-30T09:43:01;7.88;;;4.45;;
13048;SDS011;6591;51.446;5.404;2023-09-30T09:45:36;7.53;;;4.13;;
13048;SDS011;6591;51.446;5.404;2023-09-30T09:48:04;8.60;;;4.28;;
13048;SDS011;6591;51.446;5.404;2023-09-30T09:50:34;8.82;;;3.97;;
13048;SDS011;6591;51.446;5.404;2023-09-30T09:53:05;6.38;;;3.65;;
13048;SDS011;6591;51.446;5.404;2023-09-30T09:55:34;10.80;;;3.90;;
13048;SDS011;6591;51.446;5.404;2023-09-30T09:58:05;9.13;;;4.28;;
13048;SDS011;6591;51.446;5.404;2023-09-30T10:00:37;5.80;;;3.45;;
13048;SDS011;6591;51.446;5.404;2023-09-30T10:03:07;7.35;;;4.03;;
13048;SDS011;6591;51.446;5.404;2023-09-30T10:05:34;6.35;;;4.10;;
13048;SDS011;6591;51.446;5.404;2023-09-30T10:08:07;8.13;;;4.35;;
13048;SDS011;6591;51.446;5.404;2023-09-30T10:10:41;7.13;;;4.18;;
13048;SDS011;6591;51.446;5.404;2023-09-30T10:19:08;8.48;;;4.13;;
13048;SDS011;6591;51.446;5.404;2023-09-30T10:24:55;6.80;;;3.45;;
13048;SDS011;6591;51.446;5.404;2023-09-30T10:35:21;6.22;;;4.10;;
13048;SDS011;6591;51.446;5.404;2023-09-30T10:40:57;6.28;;;3.92;;
13048;SDS011;6591;51.446;5.404;2023-09-30T10:45:59;6.93;;;4.25;;
13048;SDS011;6591;51.446;5.404;2023-09-30T10:50:59;7.85;;;4.20;;
13048;SDS011;6591;51.446;5.404;2023-09-30T10:53:53;6.32;;;4.03;;
13048;SDS011;6591;51.446;5.404;2023-09-30T10:56:32;6.78;;;4.38;;
13048;SDS011;6591;51.446;5.404;2023-09-30T10:59:00;6.75;;;3.85;;
13048;SDS011;6591;51.446;5.404;2023-09-30T11:01:33;6.50;;;3.47;;
13048;SDS011;6591;51.446;5.404;2023-09-30T11:04:02;6.90;;;3.33;;
13048;SDS011;6591;51.446;5.404;2023-09-30T11:06:32;6.13;;;3.60;;
13048;SDS011;6591;51.446;5.404;2023-09-30T11:09:00;6.82;;;3.65;;
13048;SDS011;6591;51.446;5.404;2023-09-30T11:11:39;5.20;;;3.63;;
13048;SDS011;6591;51.446;5.404;2023-09-30T11:14:17;5.07;;;3.28;;
13048;SDS011;6591;51.446;5.404;2023-09-30T11:16:47;7.07;;;3.55;;
13048;SDS011;6591;51.446;5.404;2023-09-30T11:19:21;6.53;;;3.88;;
13048;SDS011;6591;51.446;5.404;2023-09-30T11:21:49;5.40;;;3.25;;
13048;SDS011;6591;51.446;5.404;2023-09-30T11:24:21;6.13;;;3.03;;
13048;SDS011;6591;51.446;5.404;2023-09-30T11:26:54;7.53;;;3.75;;
13048;SDS011;6591;51.446;5.404;2023-09-30T11:29:23;6.13;;;3.45;;
13048;SDS011;6591;51.446;5.404;2023-09-30T11:31:51;5.93;;;3.65;;
13048;SDS011;6591;51.446;5.404;2023-09-30T11:34:18;7.22;;;3.70;;
13048;SDS011;6591;51.446;5.404;2023-09-30T11:36:50;5.72;;;3.42;;
13048;SDS011;6591;51.446;5.404;2023-09-30T11:39:29;7.70;;;3.58;;
13048;SDS011;6591;51.446;5.404;2023-09-30T11:41:57;4.68;;;3.40;;
13048;SDS011;6591;51.446;5.404;2023-09-30T11:44:26;5.38;;;2.90;;
13048;SDS011;6591;51.446;5.404;2023-09-30T11:49:31;5.20;;;2.97;;
13048;SDS011;6591;51.446;5.404;2023-09-30T11:52:10;6.60;;;3.00;;
13048;SDS011;6591;51.446;5.404;2023-09-30T11:54:43;4.15;;;2.47;;
13048;SDS011;6591;51.446;5.404;2023-09-30T11:57:15;6.07;;;3.05;;
13048;SDS011;6591;51.446;5.404;2023-09-30T11:59:44;4.28;;;2.58;;
13048;SDS011;6591;51.446;5.404;2023-09-30T12:02:13;4.05;;;2.47;;
13048;SDS011;6591;51.446;5.404;2023-09-30T12:04:44;4.97;;;2.50;;
13048;SDS011;6591;51.446;5.404;2023-09-30T12:07:15;3.47;;;2.33;;
13048;SDS011;6591;51.446;5.404;2023-09-30T12:09:42;5.53;;;2.72;;
13048;SDS011;6591;51.446;5.404;2023-09-30T12:12:10;3.83;;;2.40;;
13048;SDS011;6591;51.446;5.404;2023-09-30T12:14:38;3.65;;;2.67;;
13048;SDS011;6591;51.446;5.404;2023-09-30T12:17:06;5.18;;;2.80;;
13048;SDS011;6591;51.446;5.404;2023-09-30T12:19:39;3.60;;;2.38;;
13048;SDS011;6591;51.446;5.404;2023-09-30T12:22:08;4.43;;;2.78;;
13048;SDS011;6591;51.446;5.404;2023-09-30T12:24:37;5.65;;;2.70;;
13048;SDS011;6591;51.446;5.404;2023-09-30T12:27:06;4.53;;;2.55;;
13048;SDS011;6591;51.446;5.404;2023-09-30T12:29:33;4.10;;;2.60;;
13048;SDS011;6591;51.446;5.404;2023-09-30T12:32:01;5.95;;;2.90;;
13048;SDS011;6591;51.446;5.404;2023-09-30T12:34:31;3.53;;;2.30;;
13048;SDS011;6591;51.446;5.404;2023-09-30T12:36:59;6.18;;;2.88;;
13048;SDS011;6591;51.446;5.404;2023-09-30T12:39:27;5.70;;;2.75;;
13048;SDS011;6591;51.446;5.404;2023-09-30T12:41:58;5.55;;;2.45;;
13048;SDS011;6591;51.446;5.404;2023-09-30T12:44:25;4.70;;;2.33;;
13048;SDS011;6591;51.446;5.404;2023-09-30T12:46:52;5.03;;;2.50;;
13048;SDS011;6591;51.446;5.404;2023-09-30T12:49:19;4.38;;;2.42;;
13048;SDS011;6591;51.446;5.404;2023-09-30T12:51:48;4.95;;;2.70;;
13048;SDS011;6591;51.446;5.404;2023-09-30T12:54:15;4.55;;;2.28;;
13048;SDS011;6591;51.446;5.404;2023-09-30T12:56:44;3.15;;;2.20;;
13048;SDS011;6591;51.446;5.404;2023-09-30T12:59:13;6.63;;;2.63;;
13048;SDS011;6591;51.446;5.404;2023-09-30T13:01:41;3.97;;;2.35;;
13048;SDS011;6591;51.446;5.404;2023-09-30T13:04:08;2.80;;;2.10;;
13048;SDS011;6591;51.446;5.404;2023-09-30T13:06:36;3.55;;;2.35;;
13048;SDS011;6591;51.446;5.404;2023-09-30T13:09:03;4.35;;;2.47;;
13048;SDS011;6591;51.446;5.404;2023-09-30T13:11:35;3.50;;;2.05;;
13048;SDS011;6591;51.446;5.404;2023-09-30T13:14:03;3.97;;;2.38;;
13048;SDS011;6591;51.446;5.404;2023-09-30T13:16:31;5.13;;;2.40;;
13048;SDS011;6591;51.446;5.404;2023-09-30T13:18:59;4.80;;;2.35;;
13048;SDS011;6591;51.446;5.404;2023-09-30T13:21:26;3.85;;;2.45;;
13048;SDS011;6591;51.446;5.404;2023-09-30T13:23:54;4.45;;;2.38;;
13048;SDS011;6591;51.446;5.404;2023-09-30T13:26:21;6.05;;;2.85;;
13048;SDS011;6591;51.446;5.404;2023-09-30T13:28:48;4.55;;;2.17;;
13048;SDS011;6591;51.446;5.404;2023-09-30T13:31:15;4.43;;;2.45;;
13048;SDS011;6591;51.446;5.404;2023-09-30T13:33:43;5.72;;;2.13;;
13048;SDS011;6591;51.446;5.404;2023-09-30T13:36:10;3.28;;;2.17;;
13048;SDS011;6591;51.446;5.404;2023-09-30T13:38:38;4.60;;;2.42;;
13048;SDS011;6591;51.446;5.404;2023-09-30T13:41:05;5.78;;;2.75;;
13048;SDS011;6591;51.446;5.404;2023-09-30T13:43:33;3.72;;;2.63;;
13048;SDS011;6591;51.446;5.404;2023-09-30T13:46:06;5.10;;;2.45;;
13048;SDS011;6591;51.446;5.404;2023-09-30T13:48:34;3.60;;;2.42;;
13048;SDS011;6591;51.446;5.404;2023-09-30T13:51:10;4.50;;;2.35;;
13048;SDS011;6591;51.446;5.404;2023-09-30T13:53:37;4.22;;;2.40;;
13048;SDS011;6591;51.446;5.404;2023-09-30T13:56:06;3.88;;;2.45;;
13048;SDS011;6591;51.446;5.404;2023-09-30T13:58:33;3.22;;;2.40;;
13048;SDS011;6591;51.446;5.404;2023-09-30T14:01:00;3.45;;;2.30;;
13048;SDS011;6591;51.446;5.404;2023-09-30T14:03:31;4.03;;;2.22;;
13048;SDS011;6591;51.446;5.404;2023-09-30T14:05:58;3.00;;;2.20;;
13048;SDS011;6591;51.446;5.404;2023-09-30T14:08:25;3.00;;;2.30;;
13048;SDS011;6591;51.446;5.404;2023-09-30T14:10:52;3.97;;;2.30;;
13048;SDS011;6591;51.446;5.404;2023-09-30T14:13:19;5.10;;;2.40;;
13048;SDS011;6591;51.446;5.404;2023-09-30T14:15:47;4.85;;;2.63;;
13048;SDS011;6591;51.446;5.404;2023-09-30T14:18:14;3.88;;;2.50;;
13048;SDS011;6591;51.446;5.404;2023-09-30T14:20:41;4.95;;;2.45;;
13048;SDS011;6591;51.446;5.404;2023-09-30T14:23:08;3.83;;;2.45;;
13048;SDS011;6591;51.446;5.404;2023-09-30T14:25:36;4.40;;;2.38;;
13048;SDS011;6591;51.446;5.404;2023-09-30T14:28:03;3.53;;;2.17;;
13048;SDS011;6591;51.446;5.404;2023-09-30T14:30:31;5.05;;;2.45;;
13048;SDS011;6591;51.446;5.404;2023-09-30T14:32:59;3.42;;;2.45;;
13048;SDS011;6591;51.446;5.404;2023-09-30T14:35:28;3.38;;;2.50;;
13048;SDS011;6591;51.446;5.404;2023-09-30T14:37:56;4.07;;;2.35;;
13048;SDS011;6591;51.446;5.404;2023-09-30T14:40:23;5.35;;;2.97;;
13048;SDS011;6591;51.446;5.404;2023-09-30T14:42:51;4.90;;;2.83;;
13048;SDS011;6591;51.446;5.404;2023-09-30T14:45:19;3.25;;;2.53;;
13048;SDS011;6591;51.446;5.404;2023-09-30T14:47:48;5.20;;;3.03;;
13048;SDS011;6591;51.446;5.404;2023-09-30T14:50:15;4.70;;;2.95;;
13048;SDS011;6591;51.446;5.404;2023-09-30T14:52:42;5.20;;;3.00;;
13048;SDS011;6591;51.446;5.404;2023-09-30T14:55:09;3.30;;;2.78;;
13048;SDS011;6591;51.446;5.404;2023-09-30T14:57:37;3.90;;;2.80;;
13048;SDS011;6591;51.446;5.404;2023-09-30T15:00:04;4.43;;;3.17;;
13048;SDS011;6591;51.446;5.404;2023-09-30T15:02:33;4.03;;;3.17;;
13048;SDS011;6591;51.446;5.404;2023-09-30T15:05:00;4.40;;;3.08;;
13048;SDS011;6591;51.446;5.404;2023-09-30T15:07:27;4.03;;;3.03;;
13048;SDS011;6591;51.446;5.404;2023-09-30T15:09:54;4.55;;;3.03;;
13048;SDS011;6591;51.446;5.404;2023-09-30T15:12:21;4.18;;;3.33;;
13048;SDS011;6591;51.446;5.404;2023-09-30T15:14:48;5.45;;;3.88;;
13048;SDS011;6591;51.446;5.404;2023-09-30T15:17:17;5.32;;;3.90;;
13048;SDS011;6591;51.446;5.404;2023-09-30T15:19:45;5.45;;;3.65;;
13048;SDS011;6591;51.446;5.404;2023-09-30T15:22:13;5.55;;;3.80;;
13048;SDS011;6591;51.446;5.404;2023-09-30T15:24:41;5.40;;;3.63;;
13048;SDS011;6591;51.446;5.404;2023-09-30T15:27:08;5.10;;;3.60;;
13048;SDS011;6591;51.446;5.404;2023-09-30T15:29:35;4.70;;;3.60;;
13048;SDS011;6591;51.446;5.404;2023-09-30T15:32:03;4.78;;;3.25;;
13048;SDS011;6591;51.446;5.404;2023-09-30T15:34:31;4.53;;;3.35;;
13048;SDS011;6591;51.446;5.404;2023-09-30T15:36:58;6.18;;;3.78;;
13048;SDS011;6591;51.446;5.404;2023-09-30T15:39:26;3.80;;;3.15;;